createdAt,value
2022-12-08T00:00:19.520Z,3.65
2022-12-08T00:01:19.401Z,3.67
2022-12-08T00:02:19.758Z,3.67
2022-12-08T00:03:19.778Z,3.68
2022-12-08T00:04:19.352Z,3.67
2022-12-08T00:05:19.377Z,3.67
2022-12-08T00:06:19.632Z,3.65
2022-12-08T00:07:19.462Z,3.65
2022-12-08T00:08:19.529Z,3.64
2022-12-08T00:09:19.503Z,3.65
2022-12-08T00:10:47.908Z,3.67
2022-12-08T00:11:19.293Z,3.62
2022-12-08T00:12:19.358Z,3.65
2022-12-08T00:13:19.410Z,3.62
2022-12-08T00:14:19.389Z,3.62
2022-12-08T00:15:19.622Z,3.64
2022-12-08T00:16:19.473Z,3.62
2022-12-08T00:17:19.226Z,3.62
2022-12-08T00:18:19.298Z,3.64
2022-12-08T00:19:19.610Z,3.64
2022-12-08T00:20:19.183Z,3.67
2022-12-08T00:21:19.299Z,3.65
2022-12-08T00:22:19.666Z,3.67
2022-12-08T00:23:19.167Z,3.67
2022-12-08T00:24:19.182Z,3.68
2022-12-08T00:25:19.349Z,3.68
2022-12-08T00:26:19.265Z,3.67
2022-12-08T00:27:19.300Z,3.67
2022-12-08T00:28:19.173Z,3.65
2022-12-08T00:29:19.234Z,3.65
2022-12-08T00:30:19.086Z,3.65
2022-12-08T00:31:19.447Z,3.64
2022-12-08T00:32:19.559Z,3.65
2022-12-08T00:33:19.139Z,3.64
2022-12-08T00:34:19.081Z,3.65
2022-12-08T00:35:19.081Z,3.64
2022-12-08T00:36:19.191Z,3.65
2022-12-08T00:37:19.070Z,3.64
2022-12-08T00:38:19.429Z,3.64
2022-12-08T00:39:19.355Z,3.65
2022-12-08T00:40:19.008Z,3.65
2022-12-08T00:41:19.263Z,3.65
2022-12-08T00:42:19.039Z,3.65
2022-12-08T00:43:19.133Z,3.65
2022-12-08T00:44:19.063Z,3.65
2022-12-08T00:45:19.051Z,3.64
2022-12-08T00:46:19.195Z,3.65
2022-12-08T00:47:24.546Z,3.64
2022-12-08T00:48:18.896Z,3.65
2022-12-08T00:49:18.878Z,3.65
2022-12-08T00:50:18.998Z,3.65
2022-12-08T00:51:18.911Z,3.67
2022-12-08T00:52:18.887Z,3.65
2022-12-08T00:53:18.906Z,3.64
2022-12-08T00:54:18.861Z,3.65
2022-12-08T00:55:18.827Z,3.64
2022-12-08T00:56:18.818Z,3.62
2022-12-08T00:57:18.934Z,3.62
2022-12-08T00:58:18.822Z,3.58
2022-12-08T00:59:18.953Z,3.60
2022-12-08T01:00:18.845Z,3.60
2022-12-08T01:01:18.916Z,3.61
2022-12-08T01:02:19.182Z,3.60
2022-12-08T01:03:19.033Z,3.58
2022-12-08T01:04:18.863Z,3.57
2022-12-08T01:05:18.806Z,3.58
2022-12-08T01:06:18.876Z,3.60
2022-12-08T01:07:18.832Z,3.60
2022-12-08T01:08:18.880Z,3.57
2022-12-08T01:09:18.836Z,3.57
2022-12-08T01:10:18.706Z,3.54
2022-12-08T01:11:18.836Z,3.57
2022-12-08T01:12:18.795Z,3.57
2022-12-08T01:13:18.825Z,3.54
2022-12-08T01:14:18.694Z,3.54
2022-12-08T01:15:18.842Z,3.58
2022-12-08T01:16:18.789Z,3.57
2022-12-08T01:17:18.623Z,3.57
2022-12-08T01:18:18.611Z,3.57
2022-12-08T01:19:18.613Z,3.57
2022-12-08T01:20:18.612Z,3.54
2022-12-08T01:21:18.665Z,3.52
2022-12-08T01:22:18.594Z,3.53
2022-12-08T01:23:18.543Z,3.53
2022-12-08T01:24:18.620Z,3.53
2022-12-08T01:25:18.678Z,3.53
2022-12-08T01:26:18.573Z,3.52
2022-12-08T01:27:18.579Z,3.52
2022-12-08T01:28:18.525Z,3.53
2022-12-08T01:29:18.540Z,3.52
2022-12-08T01:30:18.546Z,3.53
2022-12-08T01:31:18.800Z,3.57
2022-12-08T01:32:18.661Z,3.57
2022-12-08T01:33:18.560Z,3.57
2022-12-08T01:34:18.748Z,3.57
2022-12-08T01:35:18.526Z,3.58
2022-12-08T01:36:18.405Z,3.58
2022-12-08T01:37:18.647Z,3.58
2022-12-08T01:38:18.468Z,3.60
2022-12-08T01:39:18.460Z,3.60
2022-12-08T01:40:18.372Z,3.61
2022-12-08T01:41:18.415Z,3.61
2022-12-08T01:42:18.406Z,3.62
2022-12-08T01:43:18.534Z,3.64
2022-12-08T01:44:18.469Z,3.67
2022-12-08T01:45:18.443Z,3.68
2022-12-08T01:46:18.366Z,3.67
2022-12-08T01:47:18.311Z,3.68
2022-12-08T01:48:18.392Z,3.71
2022-12-08T01:49:18.392Z,3.71
2022-12-08T01:50:18.349Z,3.75
2022-12-08T01:51:18.319Z,3.72
2022-12-08T01:52:18.310Z,3.75
2022-12-08T01:53:18.426Z,3.72
2022-12-08T01:54:18.269Z,3.75
2022-12-08T01:55:18.637Z,3.75
2022-12-08T01:56:18.253Z,3.76
2022-12-08T01:57:18.524Z,3.76
2022-12-08T01:58:18.350Z,3.75
2022-12-08T01:59:18.326Z,3.76
2022-12-08T02:00:18.285Z,3.78
2022-12-08T02:01:18.400Z,3.76
2022-12-08T02:02:18.264Z,3.78
2022-12-08T02:03:18.175Z,3.78
2022-12-08T02:04:18.175Z,3.76
2022-12-08T02:05:18.165Z,3.78
2022-12-08T02:06:18.179Z,3.78
2022-12-08T02:07:18.133Z,3.76
2022-12-08T02:08:18.186Z,3.76
2022-12-08T02:09:18.906Z,3.78
2022-12-08T02:10:18.140Z,3.78
2022-12-08T02:11:18.085Z,3.78
2022-12-08T02:12:18.283Z,3.78
2022-12-08T02:13:18.072Z,3.79
2022-12-08T02:14:18.124Z,3.78
2022-12-08T02:15:18.336Z,3.78
2022-12-08T02:16:18.221Z,3.79
2022-12-08T02:17:18.304Z,3.78
2022-12-08T02:18:18.202Z,3.78
2022-12-08T02:19:33.672Z,3.78
2022-12-08T02:20:18.204Z,3.78
2022-12-08T02:21:18.138Z,3.78
2022-12-08T02:22:18.231Z,3.79
2022-12-08T02:23:18.163Z,3.78
2022-12-08T02:24:17.971Z,3.78
2022-12-08T02:25:17.952Z,3.78
2022-12-08T02:26:18.059Z,3.78
2022-12-08T02:27:18.090Z,3.78
2022-12-08T02:28:18.066Z,3.78
2022-12-08T02:29:18.175Z,3.79
2022-12-08T02:30:17.899Z,3.78
2022-12-08T02:31:17.983Z,3.79
2022-12-08T02:32:17.908Z,3.79
2022-12-08T02:33:18.118Z,3.79
2022-12-08T02:34:17.886Z,3.79
2022-12-08T02:35:17.831Z,3.80
2022-12-08T02:36:17.813Z,3.79
2022-12-08T02:37:17.828Z,3.80
2022-12-08T02:38:17.929Z,3.79
2022-12-08T02:39:17.866Z,3.80
2022-12-08T02:40:18.059Z,3.80
2022-12-08T02:41:17.903Z,3.80
2022-12-08T02:42:17.805Z,3.82
2022-12-08T02:43:17.948Z,3.82
2022-12-08T02:44:17.913Z,3.85
2022-12-08T02:45:17.939Z,3.83
2022-12-08T02:46:17.877Z,3.88
2022-12-08T02:47:18.171Z,3.86
2022-12-08T02:48:17.954Z,3.85
2022-12-08T02:49:17.828Z,3.85
2022-12-08T02:50:17.722Z,3.86
2022-12-08T02:51:17.848Z,3.86
2022-12-08T02:52:17.772Z,3.88
2022-12-08T02:53:47.460Z,3.88
2022-12-08T02:54:48.561Z,3.89
2022-12-08T02:55:48.387Z,3.89
2022-12-08T02:56:48.376Z,3.90
2022-12-08T02:57:48.550Z,3.90
2022-12-08T02:58:48.382Z,3.92
2022-12-08T02:59:48.397Z,3.92
2022-12-08T03:00:48.417Z,3.90
2022-12-08T03:01:48.452Z,3.92
2022-12-08T03:02:48.408Z,3.92
2022-12-08T03:03:48.530Z,3.92
2022-12-08T03:04:48.352Z,3.92
2022-12-08T03:05:48.308Z,3.94
2022-12-08T03:06:48.382Z,3.94
2022-12-08T03:07:48.382Z,3.94
2022-12-08T03:08:48.397Z,3.94
2022-12-08T03:09:48.361Z,3.94
2022-12-08T03:10:48.454Z,3.94
2022-12-08T03:11:48.520Z,3.94
2022-12-08T03:12:48.416Z,3.92
2022-12-08T03:13:48.237Z,3.96
2022-12-08T03:14:48.464Z,3.96
2022-12-08T03:15:48.438Z,3.94
2022-12-08T03:16:48.211Z,3.96
2022-12-08T03:17:48.377Z,3.96
2022-12-08T03:18:48.522Z,3.96
2022-12-08T03:19:48.251Z,3.96
2022-12-08T03:20:48.236Z,3.96
2022-12-08T03:21:48.341Z,3.96
2022-12-08T03:22:48.239Z,3.97
2022-12-08T03:23:48.265Z,3.94
2022-12-08T03:24:48.383Z,3.97
2022-12-08T03:25:48.102Z,3.94
2022-12-08T03:26:48.129Z,3.97
2022-12-08T03:27:48.094Z,3.97
2022-12-08T03:28:48.159Z,3.97
2022-12-08T03:29:48.493Z,3.98
2022-12-08T03:30:48.117Z,3.98
2022-12-08T03:31:48.130Z,3.98
2022-12-08T03:32:48.175Z,3.98
2022-12-08T03:33:48.258Z,4.00
2022-12-08T03:34:47.995Z,3.98
2022-12-08T03:35:48.036Z,4.00
2022-12-08T03:36:48.137Z,4.01
2022-12-08T03:37:48.125Z,4.00
2022-12-08T03:38:48.215Z,4.00
2022-12-08T03:39:48.136Z,3.98
2022-12-08T03:40:48.001Z,4.00
2022-12-08T03:41:48.032Z,4.01
2022-12-08T03:42:48.232Z,3.98
2022-12-08T03:43:48.145Z,4.01
2022-12-08T03:44:47.934Z,4.01
2022-12-08T03:45:47.936Z,4.01
2022-12-08T03:46:47.905Z,4.03
2022-12-08T03:47:47.912Z,4.03
2022-12-08T03:48:47.921Z,4.01
2022-12-08T03:49:47.942Z,4.03
2022-12-08T03:50:47.901Z,4.03
2022-12-08T03:51:47.865Z,4.01
2022-12-08T03:52:48.018Z,4.01
2022-12-08T03:53:47.880Z,4.01
2022-12-08T03:54:47.875Z,4.03
2022-12-08T03:55:48.027Z,4.00
2022-12-08T03:56:48.030Z,4.01
2022-12-08T03:57:47.806Z,4.00
2022-12-08T03:58:47.933Z,4.00
2022-12-08T03:59:47.777Z,4.00
2022-12-08T04:00:47.906Z,4.03
2022-12-08T04:01:47.837Z,4.01
2022-12-08T04:02:47.818Z,4.00
2022-12-08T04:03:47.916Z,4.01
2022-12-08T04:04:47.907Z,4.01
2022-12-08T04:05:47.729Z,4.01
2022-12-08T04:06:47.747Z,4.01
2022-12-08T04:07:47.675Z,4.03
2022-12-08T04:08:47.926Z,4.01
2022-12-08T04:09:47.720Z,4.00
2022-12-08T04:10:47.797Z,4.00
2022-12-08T04:11:47.635Z,4.00
2022-12-08T04:12:47.642Z,4.01
2022-12-08T04:13:47.697Z,4.01
2022-12-08T04:14:47.756Z,4.01
2022-12-08T04:15:47.719Z,4.03
2022-12-08T04:16:47.809Z,4.01
2022-12-08T04:17:47.609Z,4.01
2022-12-08T04:18:47.621Z,4.03
2022-12-08T04:19:47.789Z,4.01
2022-12-08T04:20:47.573Z,4.03
2022-12-08T04:21:47.656Z,4.04
2022-12-08T04:22:47.645Z,4.03
2022-12-08T04:23:47.921Z,4.03
2022-12-08T04:24:47.679Z,4.03
2022-12-08T04:25:47.740Z,4.03
2022-12-08T04:26:47.538Z,4.04
2022-12-08T04:27:47.673Z,4.04
2022-12-08T04:28:47.482Z,4.04
2022-12-08T04:29:47.471Z,4.04
2022-12-08T04:30:47.459Z,4.01
2022-12-08T04:31:47.487Z,4.03
2022-12-08T04:32:47.769Z,4.03
2022-12-08T04:33:47.723Z,4.03
2022-12-08T04:34:47.443Z,4.03
2022-12-08T04:35:47.625Z,4.01
2022-12-08T04:36:47.432Z,4.03
2022-12-08T04:37:47.504Z,4.00
2022-12-08T04:38:47.633Z,4.03
2022-12-08T04:39:47.386Z,4.00
2022-12-08T04:40:47.428Z,4.01
2022-12-08T04:41:47.387Z,4.00
2022-12-08T04:42:47.325Z,4.00
2022-12-08T04:43:47.333Z,4.01
2022-12-08T04:44:47.584Z,4.01
2022-12-08T04:45:47.423Z,4.01
2022-12-08T04:46:47.408Z,4.03
2022-12-08T04:47:47.640Z,4.01
2022-12-08T04:48:47.288Z,3.98
2022-12-08T04:49:47.407Z,4.00
2022-12-08T04:50:47.309Z,4.00
2022-12-08T04:51:47.285Z,4.01
2022-12-08T04:52:47.420Z,4.00
2022-12-08T04:53:47.381Z,4.00
2022-12-08T04:54:47.479Z,4.00
2022-12-08T04:55:47.228Z,4.01
2022-12-08T04:56:47.257Z,4.01
2022-12-08T04:57:47.189Z,4.00
2022-12-08T04:58:47.175Z,4.01
2022-12-08T04:59:47.159Z,4.00
2022-12-08T05:00:47.209Z,4.01
2022-12-08T05:01:47.417Z,4.00
2022-12-08T05:02:47.219Z,3.98
2022-12-08T05:03:47.192Z,4.00
2022-12-08T05:04:47.164Z,4.00
2022-12-08T05:05:47.140Z,4.00
2022-12-08T05:06:47.107Z,4.01
2022-12-08T05:07:47.457Z,4.00
2022-12-08T05:08:47.217Z,3.98
2022-12-08T05:09:47.122Z,3.98
2022-12-08T05:10:47.193Z,4.00
2022-12-08T05:11:49.243Z,4.00
2022-12-08T05:12:47.137Z,3.98
2022-12-08T05:13:47.042Z,4.00
2022-12-08T05:14:47.083Z,4.00
2022-12-08T05:15:47.042Z,3.98
2022-12-08T05:16:47.040Z,4.00
2022-12-08T05:17:47.111Z,4.01
2022-12-08T05:18:47.126Z,4.01
2022-12-08T05:19:47.168Z,4.01
2022-12-08T05:20:47.038Z,4.01
2022-12-08T05:21:46.978Z,4.03
2022-12-08T05:22:47.043Z,4.01
2022-12-08T05:23:47.301Z,4.03
2022-12-08T05:24:47.827Z,4.04
2022-12-08T05:25:47.010Z,4.04
2022-12-08T05:26:46.958Z,4.04
2022-12-08T05:27:46.924Z,4.04
2022-12-08T05:28:46.895Z,4.04
2022-12-08T05:29:46.970Z,4.04
2022-12-08T05:30:47.046Z,4.03
2022-12-08T05:31:46.994Z,4.01
2022-12-08T05:32:46.885Z,4.03
2022-12-08T05:33:46.852Z,4.04
2022-12-08T05:34:46.834Z,4.04
2022-12-08T05:35:46.874Z,4.01
2022-12-08T05:36:46.821Z,4.03
2022-12-08T05:37:47.027Z,4.04
2022-12-08T05:38:47.566Z,4.03
2022-12-08T05:39:46.820Z,4.03
2022-12-08T05:40:47.045Z,4.04
2022-12-08T05:41:47.083Z,4.04
2022-12-08T05:42:47.706Z,4.04
2022-12-08T05:43:46.955Z,4.04
2022-12-08T05:44:47.100Z,4.04
2022-12-08T05:45:46.832Z,4.03
2022-12-08T05:46:46.703Z,4.04
2022-12-08T05:47:46.665Z,4.03
2022-12-08T05:48:46.699Z,4.03
2022-12-08T05:49:46.645Z,4.04
2022-12-08T05:50:46.701Z,4.03
2022-12-08T05:51:46.693Z,4.04
2022-12-08T05:52:46.676Z,4.03
2022-12-08T05:53:46.636Z,4.04
2022-12-08T05:54:46.615Z,4.06
2022-12-08T05:55:46.598Z,4.01
2022-12-08T05:56:46.765Z,4.04
2022-12-08T05:57:46.696Z,4.01
2022-12-08T05:58:46.814Z,4.00
2022-12-08T05:59:46.570Z,4.01
2022-12-08T06:00:46.780Z,4.03
2022-12-08T06:01:46.781Z,4.00
2022-12-08T06:02:46.701Z,3.97
2022-12-08T06:03:46.563Z,3.96
2022-12-08T06:04:46.786Z,3.94
2022-12-08T06:05:46.673Z,3.94
2022-12-08T06:06:46.526Z,3.92
2022-12-08T06:07:46.591Z,3.89
2022-12-08T06:08:46.532Z,3.89
2022-12-08T06:09:46.524Z,3.89
2022-12-08T06:10:46.513Z,3.90
2022-12-08T06:11:46.795Z,3.89
2022-12-08T06:12:46.462Z,3.89
2022-12-08T06:13:46.519Z,3.88
2022-12-08T06:14:46.557Z,3.89
2022-12-08T06:15:46.568Z,3.89
2022-12-08T06:16:46.555Z,3.89
2022-12-08T06:17:46.453Z,3.89
2022-12-08T06:18:46.476Z,3.88
2022-12-08T06:19:46.481Z,3.89
2022-12-08T06:20:46.633Z,3.88
2022-12-08T06:21:46.399Z,3.88
2022-12-08T06:22:46.434Z,3.88
2022-12-08T06:23:46.355Z,3.90
2022-12-08T06:24:46.435Z,3.90
2022-12-08T06:25:46.331Z,3.90
2022-12-08T06:26:46.451Z,3.92
2022-12-08T06:27:46.666Z,3.94
2022-12-08T06:28:46.633Z,3.94
2022-12-08T06:29:46.293Z,3.94
2022-12-08T06:30:46.394Z,3.90
2022-12-08T06:31:46.415Z,3.90
2022-12-08T06:32:46.281Z,3.94
2022-12-08T06:33:46.252Z,3.94
2022-12-08T06:34:46.214Z,3.96
2022-12-08T06:35:46.475Z,3.96
2022-12-08T06:36:46.229Z,3.94
2022-12-08T06:37:46.234Z,3.94
2022-12-08T06:38:46.344Z,3.92
2022-12-08T06:39:46.378Z,3.92
2022-12-08T06:40:46.172Z,3.92
2022-12-08T06:41:46.271Z,3.96
2022-12-08T06:42:46.272Z,3.96
2022-12-08T06:43:46.138Z,3.96
2022-12-08T06:44:46.166Z,3.96
2022-12-08T06:45:46.381Z,3.96
2022-12-08T06:46:46.365Z,3.96
2022-12-08T06:47:46.106Z,3.94
2022-12-08T06:48:46.173Z,3.96
2022-12-08T06:49:46.086Z,3.94
2022-12-08T06:50:46.573Z,3.94
2022-12-08T06:51:46.053Z,3.90
2022-12-08T06:52:57.035Z,3.92
2022-12-08T06:53:46.015Z,3.90
2022-12-08T06:54:46.130Z,3.92
2022-12-08T06:56:01.549Z,3.92
2022-12-08T06:56:46.175Z,3.92
2022-12-08T06:57:46.163Z,3.90
2022-12-08T06:58:52.085Z,3.90
2022-12-08T06:59:46.012Z,3.88
2022-12-08T07:00:46.547Z,3.88
2022-12-08T07:01:47.205Z,3.88
2022-12-08T07:02:46.139Z,3.90
2022-12-08T07:03:45.974Z,3.90
2022-12-08T07:04:45.979Z,3.90
2022-12-08T07:05:45.958Z,3.89
2022-12-08T07:06:46.361Z,3.88
2022-12-08T07:07:46.031Z,3.88
2022-12-08T07:08:46.335Z,3.88
2022-12-08T07:09:45.927Z,3.86
2022-12-08T07:10:45.902Z,3.89
2022-12-08T07:11:46.115Z,3.86
2022-12-08T07:12:45.971Z,3.88
2022-12-08T07:13:46.037Z,3.88
2022-12-08T07:14:46.262Z,3.89
2022-12-08T07:15:46.158Z,3.90
2022-12-08T07:16:45.856Z,3.88
2022-12-08T07:17:46.071Z,3.89
2022-12-08T07:18:45.859Z,3.89
2022-12-08T07:19:45.990Z,3.89
2022-12-08T07:20:46.065Z,3.88
2022-12-08T07:21:45.853Z,3.86
2022-12-08T07:22:45.749Z,3.86
2022-12-08T07:23:45.750Z,3.88
2022-12-08T07:24:45.709Z,3.86
2022-12-08T07:25:46.028Z,3.86
2022-12-08T07:26:45.782Z,3.86
2022-12-08T07:27:45.707Z,3.86
2022-12-08T07:28:45.705Z,3.86
2022-12-08T07:29:45.963Z,3.85
2022-12-08T07:30:45.796Z,3.85
2022-12-08T07:31:45.737Z,3.85
2022-12-08T07:32:46.007Z,3.83
2022-12-08T07:33:45.841Z,3.85
2022-12-08T07:34:47.238Z,3.85
2022-12-08T07:35:49.351Z,3.85
2022-12-08T07:36:45.751Z,3.85
2022-12-08T07:37:45.603Z,3.88
2022-12-08T07:38:45.633Z,3.86
2022-12-08T07:39:46.078Z,3.88
2022-12-08T07:40:45.589Z,3.85
2022-12-08T07:41:45.784Z,3.86
2022-12-08T07:42:45.664Z,3.86
2022-12-08T07:43:46.189Z,3.86
2022-12-08T07:44:45.632Z,3.86
2022-12-08T07:45:45.664Z,3.88
2022-12-08T07:46:45.685Z,3.85
2022-12-08T07:47:45.645Z,3.85
2022-12-08T07:48:45.496Z,3.85
2022-12-08T07:49:45.667Z,3.82
2022-12-08T07:50:45.949Z,3.79
2022-12-08T07:51:45.479Z,3.79
2022-12-08T07:52:45.845Z,3.78
2022-12-08T07:53:50.038Z,3.79
2022-12-08T07:54:45.938Z,3.80
2022-12-08T07:55:45.447Z,3.78
2022-12-08T07:56:46.527Z,3.79
2022-12-08T07:57:45.412Z,3.78
2022-12-08T07:58:45.506Z,3.78
2022-12-08T07:59:45.546Z,3.78
2022-12-08T08:00:45.431Z,3.78
2022-12-08T08:01:45.886Z,3.78
2022-12-08T08:02:45.549Z,3.76
2022-12-08T08:03:45.539Z,3.75
2022-12-08T08:04:45.395Z,3.76
2022-12-08T08:05:45.473Z,3.72
2022-12-08T08:06:45.408Z,3.70
2022-12-08T08:07:45.541Z,3.67
2022-12-08T08:08:45.552Z,3.68
2022-12-08T08:09:45.490Z,3.67
2022-12-08T08:10:45.408Z,3.65
2022-12-08T08:12:01.149Z,3.64
2022-12-08T08:12:45.279Z,3.62
2022-12-08T08:13:45.257Z,3.60
2022-12-08T08:14:45.249Z,3.60
2022-12-08T08:15:45.359Z,3.58
2022-12-08T08:16:45.373Z,3.58
2022-12-08T08:17:45.254Z,3.58
2022-12-08T08:18:45.286Z,3.54
2022-12-08T08:19:45.171Z,3.54
2022-12-08T08:20:45.169Z,3.54
2022-12-08T08:21:46.287Z,3.53
2022-12-08T08:22:45.167Z,3.53
2022-12-08T08:23:45.147Z,3.54
2022-12-08T08:24:45.440Z,3.54
2022-12-08T08:25:45.139Z,3.58
2022-12-08T08:26:45.238Z,3.60
2022-12-08T08:27:45.148Z,3.60
2022-12-08T08:28:45.301Z,3.60
2022-12-08T08:29:45.106Z,3.58
2022-12-08T08:30:45.236Z,3.60
2022-12-08T08:31:45.258Z,3.60
2022-12-08T08:32:45.068Z,3.60
2022-12-08T08:33:45.084Z,3.58
2022-12-08T08:34:45.365Z,3.57
2022-12-08T08:35:45.257Z,3.54
2022-12-08T08:36:45.132Z,3.54
2022-12-08T08:37:48.924Z,3.58
2022-12-08T08:38:45.037Z,3.58
2022-12-08T08:39:45.212Z,3.60
2022-12-08T08:40:45.426Z,3.60
2022-12-08T08:41:44.991Z,3.60
2022-12-08T08:42:45.206Z,3.60
2022-12-08T08:43:45.245Z,3.60
2022-12-08T08:44:44.970Z,3.61
2022-12-08T08:45:44.954Z,3.61
2022-12-08T08:46:44.994Z,3.61
2022-12-08T08:47:44.914Z,3.60
2022-12-08T08:48:44.899Z,3.61
2022-12-08T08:49:44.933Z,3.60
2022-12-08T08:50:45.265Z,3.61
2022-12-08T08:51:44.860Z,3.61
2022-12-08T08:52:45.209Z,3.60
2022-12-08T08:53:45.044Z,3.60
2022-12-08T08:54:44.830Z,3.61
2022-12-08T08:55:45.011Z,3.61
2022-12-08T08:56:44.938Z,3.62
2022-12-08T08:57:44.815Z,3.62
2022-12-08T08:58:44.841Z,3.62
2022-12-08T08:59:44.775Z,3.60
2022-12-08T09:00:44.884Z,3.58
2022-12-08T09:01:45.429Z,3.58
2022-12-08T09:02:45.035Z,3.60
2022-12-08T09:03:44.800Z,3.61
2022-12-08T09:04:44.978Z,3.61
2022-12-08T09:05:44.807Z,3.64
2022-12-08T09:06:44.744Z,3.64
2022-12-08T09:07:44.856Z,3.67
2022-12-08T09:08:44.765Z,3.65
2022-12-08T09:09:44.729Z,3.68
2022-12-08T09:10:44.749Z,3.67
2022-12-08T09:11:44.940Z,3.67
2022-12-08T09:12:44.898Z,3.65
2022-12-08T09:13:44.717Z,3.67
2022-12-08T09:14:44.846Z,3.64
2022-12-08T09:15:44.688Z,3.60
2022-12-08T09:16:44.739Z,3.58
2022-12-08T09:17:44.955Z,3.58
2022-12-08T09:18:44.687Z,3.60
2022-12-08T09:19:44.594Z,3.60
2022-12-08T09:20:44.704Z,3.60
2022-12-08T09:21:44.636Z,3.58
2022-12-08T09:22:44.693Z,3.60
2022-12-08T09:23:45.067Z,3.61
2022-12-08T09:24:45.006Z,3.62
2022-12-08T09:25:44.911Z,3.60
2022-12-08T09:26:45.152Z,3.62
2022-12-08T09:27:44.560Z,3.62
2022-12-08T09:28:44.698Z,3.60
2022-12-08T09:29:44.885Z,3.60
2022-12-08T09:30:44.775Z,3.57
2022-12-08T09:31:44.702Z,3.57
2022-12-08T09:32:44.580Z,3.54
2022-12-08T09:33:44.668Z,3.54
2022-12-08T09:34:49.017Z,3.57
2022-12-08T09:35:44.493Z,3.58
2022-12-08T09:36:44.568Z,3.62
2022-12-08T09:37:44.631Z,3.62
2022-12-08T09:38:44.803Z,3.64
2022-12-08T09:39:44.407Z,3.64
2022-12-08T09:40:44.706Z,3.62
2022-12-08T09:41:48.034Z,3.62
2022-12-08T09:42:44.448Z,3.60
2022-12-08T09:43:44.460Z,3.61
2022-12-08T09:44:44.777Z,3.58
2022-12-08T09:45:44.404Z,3.58
2022-12-08T09:46:44.652Z,3.58
2022-12-08T09:47:44.340Z,3.60
2022-12-08T09:48:44.421Z,3.61
2022-12-08T09:49:44.712Z,3.64
2022-12-08T09:50:44.459Z,3.64
2022-12-08T09:51:44.343Z,3.65
2022-12-08T09:52:44.492Z,3.65
2022-12-08T09:53:44.879Z,3.67
2022-12-08T09:54:44.332Z,3.70
2022-12-08T09:55:44.528Z,3.71
2022-12-08T09:56:44.292Z,3.68
2022-12-08T09:57:44.268Z,3.67
2022-12-08T09:58:44.292Z,3.67
2022-12-08T09:59:45.818Z,3.68
2022-12-08T10:00:44.222Z,3.70
2022-12-08T10:01:44.307Z,3.70
2022-12-08T10:02:44.238Z,3.70
2022-12-08T10:03:44.782Z,3.71
2022-12-08T10:04:44.218Z,3.71
2022-12-08T10:05:44.167Z,3.72
2022-12-08T10:06:44.161Z,3.75
2022-12-08T10:07:44.351Z,3.76
2022-12-08T10:08:44.239Z,3.79
2022-12-08T10:09:44.329Z,3.80
2022-12-08T10:10:44.135Z,3.79
2022-12-08T10:11:44.416Z,3.78
2022-12-08T10:12:44.340Z,3.79
2022-12-08T10:13:44.618Z,3.78
2022-12-08T10:14:44.278Z,3.79
2022-12-08T10:15:44.263Z,3.79
2022-12-08T10:16:44.138Z,3.79
2022-12-08T10:17:44.316Z,3.79
2022-12-08T10:18:44.581Z,3.80
2022-12-08T10:19:44.294Z,3.80
2022-12-08T10:20:44.078Z,3.78
2022-12-08T10:21:43.982Z,3.76
2022-12-08T10:22:45.098Z,3.76
2022-12-08T10:23:44.170Z,3.76
2022-12-08T10:24:44.232Z,3.75
2022-12-08T10:25:43.975Z,3.75
2022-12-08T10:26:44.117Z,3.76
2022-12-08T10:27:44.027Z,3.76
2022-12-08T10:28:45.540Z,3.70
2022-12-08T10:29:44.440Z,3.68
2022-12-08T10:30:44.030Z,3.68
2022-12-08T10:31:44.330Z,3.68
2022-12-08T10:32:44.119Z,3.70
2022-12-08T10:33:44.209Z,3.71
2022-12-08T10:34:44.144Z,3.75
2022-12-08T10:35:44.172Z,3.76
2022-12-08T10:36:43.839Z,3.78
2022-12-08T10:37:44.040Z,3.78
2022-12-08T10:38:43.890Z,3.79
2022-12-08T10:39:43.967Z,3.80
2022-12-08T10:40:45.877Z,3.79
2022-12-08T10:41:43.955Z,3.79
2022-12-08T10:42:43.913Z,3.78
2022-12-08T10:43:43.796Z,3.75
2022-12-08T10:44:44.199Z,3.76
2022-12-08T10:45:43.861Z,3.78
2022-12-08T10:46:43.946Z,3.75
2022-12-08T10:47:45.459Z,3.72
2022-12-08T10:48:44.131Z,3.71
2022-12-08T10:49:43.787Z,3.71
2022-12-08T10:50:43.735Z,3.71
2022-12-08T10:51:43.768Z,3.70
2022-12-08T10:52:43.793Z,3.70
2022-12-08T10:53:43.754Z,3.71
2022-12-08T10:54:43.771Z,3.70
2022-12-08T10:55:44.359Z,3.70
2022-12-08T10:56:43.829Z,3.70
2022-12-08T10:57:43.657Z,3.70
2022-12-08T10:58:43.834Z,3.70
2022-12-08T10:59:43.756Z,3.70
2022-12-08T11:00:43.718Z,3.68
2022-12-08T11:01:43.790Z,3.68
2022-12-08T11:02:43.708Z,3.68
2022-12-08T11:03:43.634Z,3.67
2022-12-08T11:04:43.761Z,3.68
2022-12-08T11:05:43.546Z,3.68
2022-12-08T11:06:43.645Z,3.70
2022-12-08T11:07:43.765Z,3.72
2022-12-08T11:08:43.725Z,3.75
2022-12-08T11:09:44.531Z,3.72
2022-12-08T11:10:43.517Z,3.75
2022-12-08T11:11:43.530Z,3.76
2022-12-08T11:12:43.481Z,3.79
2022-12-08T11:13:43.536Z,3.82
2022-12-08T11:14:43.751Z,3.82
2022-12-08T11:15:43.764Z,3.85
2022-12-08T11:16:44.003Z,3.83
2022-12-08T11:17:43.580Z,3.85
2022-12-08T11:18:43.541Z,3.85
2022-12-08T11:19:43.415Z,3.83
2022-12-08T11:20:43.611Z,3.85
2022-12-08T11:21:43.455Z,3.86
2022-12-08T11:22:43.488Z,3.88
2022-12-08T11:23:43.494Z,3.86
2022-12-08T11:24:44.091Z,3.85
2022-12-08T11:25:43.410Z,3.85
2022-12-08T11:26:43.597Z,3.85
2022-12-08T11:27:43.328Z,3.83
2022-12-08T11:28:43.547Z,3.82
2022-12-08T11:29:43.410Z,3.82
2022-12-08T11:30:43.362Z,3.80
2022-12-08T11:31:43.765Z,3.79
2022-12-08T11:32:43.518Z,3.82
2022-12-08T11:33:43.337Z,3.80
2022-12-08T11:34:43.439Z,3.82
2022-12-08T11:35:43.433Z,3.82
2022-12-08T11:36:43.272Z,3.82
2022-12-08T11:37:43.313Z,3.82
2022-12-08T11:38:43.273Z,3.85
2022-12-08T11:39:43.345Z,3.86
2022-12-08T11:40:43.324Z,3.86
2022-12-08T11:41:43.202Z,3.86
2022-12-08T11:42:43.208Z,3.86
2022-12-08T11:43:43.239Z,3.88
2022-12-08T11:44:43.186Z,3.89
2022-12-08T11:45:43.274Z,3.89
2022-12-08T11:46:43.152Z,3.94
2022-12-08T11:47:43.142Z,3.92
2022-12-08T11:48:43.342Z,3.94
2022-12-08T11:49:43.297Z,3.92
2022-12-08T11:50:43.157Z,3.94
2022-12-08T11:51:43.218Z,3.94
2022-12-08T11:52:43.117Z,3.94
2022-12-08T11:53:43.075Z,3.92
2022-12-08T11:54:43.067Z,3.92
2022-12-08T11:55:48.138Z,3.90
2022-12-08T11:56:43.281Z,3.89
2022-12-08T11:57:43.337Z,3.89
2022-12-08T11:58:43.071Z,3.85
2022-12-08T11:59:43.034Z,3.82
2022-12-08T12:00:43.162Z,3.71
2022-12-08T12:01:43.027Z,3.60
2022-12-08T12:02:43.155Z,3.57
2022-12-08T12:03:43.051Z,3.54
2022-12-08T12:04:42.995Z,3.54
2022-12-08T12:06:58.559Z,3.53
2022-12-08T12:07:43.030Z,3.53
2022-12-08T12:08:43.006Z,3.57
2022-12-08T12:09:42.982Z,3.54
2022-12-08T12:10:42.921Z,3.58
2022-12-08T12:11:42.976Z,3.54
2022-12-08T12:12:42.935Z,3.53
2022-12-08T12:13:43.068Z,3.52
2022-12-08T12:14:42.919Z,3.49
2022-12-08T12:15:42.844Z,3.47
2022-12-08T12:16:42.842Z,3.49
2022-12-08T12:17:43.077Z,3.47
2022-12-08T12:18:42.873Z,3.50
2022-12-08T12:19:42.830Z,3.49
2022-12-08T12:20:42.834Z,3.47
2022-12-08T12:21:42.830Z,3.49
2022-12-08T12:22:42.823Z,3.52
2022-12-08T12:23:42.817Z,3.49
2022-12-08T12:24:42.801Z,3.50
2022-12-08T12:25:42.876Z,3.49
2022-12-08T12:26:43.019Z,3.46
2022-12-08T12:27:42.745Z,3.44
2022-12-08T12:28:42.917Z,3.44
2022-12-08T12:29:43.164Z,3.47
2022-12-08T12:30:42.956Z,3.47
2022-12-08T12:31:42.793Z,3.49
2022-12-08T12:32:42.726Z,3.49
2022-12-08T12:33:42.703Z,3.49
2022-12-08T12:34:42.665Z,3.47
2022-12-08T12:35:42.692Z,3.49
2022-12-08T12:36:42.724Z,3.49
2022-12-08T12:37:42.627Z,3.50
2022-12-08T12:38:42.714Z,3.53
2022-12-08T12:39:42.800Z,3.52
2022-12-08T12:40:42.707Z,3.53
2022-12-08T12:41:42.628Z,3.53
2022-12-08T12:42:42.609Z,3.57
2022-12-08T12:43:42.594Z,3.57
2022-12-08T12:44:42.608Z,3.57
2022-12-08T12:45:42.678Z,3.57
2022-12-08T12:46:42.725Z,3.57
2022-12-08T12:47:42.540Z,3.58
2022-12-08T12:48:42.648Z,3.60
2022-12-08T12:49:42.736Z,3.61
2022-12-08T12:50:42.637Z,3.62
2022-12-08T12:51:42.523Z,3.65
2022-12-08T12:52:42.680Z,3.65
2022-12-08T12:53:42.689Z,3.70
2022-12-08T12:54:42.538Z,3.72
2022-12-08T12:55:42.695Z,3.75
2022-12-08T12:56:42.836Z,3.75
2022-12-08T12:57:42.600Z,3.76
2022-12-08T12:58:42.461Z,3.78
2022-12-08T12:59:42.450Z,3.79
2022-12-08T13:00:42.409Z,3.80
2022-12-08T13:01:42.741Z,3.80
2022-12-08T13:02:42.540Z,3.83
2022-12-08T13:03:42.387Z,3.83
2022-12-08T13:04:42.393Z,3.85
2022-12-08T13:05:42.520Z,3.85
2022-12-08T13:06:42.375Z,3.88
2022-12-08T13:07:42.403Z,3.88
2022-12-08T13:08:42.397Z,3.88
2022-12-08T13:09:42.542Z,3.89
2022-12-08T13:10:42.373Z,3.90
2022-12-08T13:11:47.710Z,3.92
2022-12-08T13:12:42.377Z,3.92
2022-12-08T13:13:42.339Z,3.92
2022-12-08T13:14:42.305Z,3.94
2022-12-08T13:15:42.359Z,3.94
2022-12-08T13:16:42.380Z,3.96
2022-12-08T13:17:42.331Z,3.94
2022-12-08T13:18:42.288Z,3.96
2022-12-08T13:19:44.370Z,3.94